Relevés horaires Bierset (Belgique)


Relevés horaires à Bierset - Mardi 03 Juill. 2018
Heure UTC1 Température [°C] Vent [km/h] Hum. [%] Pres.4 [hPa] Visi. [Km] Nébu. [octa] Préc.5 [mm] Cond.
2m. Res. Ros. Dir.2 Vit. Moy. Raf.3
23:00 23.6 23.6 10.3 SE 3.7 3.7 7.4 43 1014.9(0.4/3h) 45 7/8 -- --
22:00 23.8 23.8 10.2 SE 3.7 5.6 7.4 42 1014.8(0.3/3h) 45 7/8 -- --
21:00 24.5 24.5 10.0 SE 5.6 5.6 13.0 40 1014.8(0.3/3h) 45 7/8 -- --
20:00 25.3 25.3 9.0 E 3.7 5.6 9.3 36 1014.4(-0.3/3h) 45 7/8 -- --
19:00 25.5 25.5 9.4 NE 3.7 5.6 5.6 36 1014.4(-0.4/3h) 40 6/8 -- --
18:00 26.6 26.6 9.0 NE 5.6 5.6 13.0 33 1014.3(-0.8/3h) 30 6/8 0/12h
--
17:00 26.9 26.9 9.2 NNE 3.7 3.7 5.6 33 1014.6(-0.6/3h) 30 6/8 -- --
16:00 26.9 26.9 8.8 NNO 3.7 3.7 7.4 32 1014.8(-0.8/3h) 30 7/8 -- --
15:00 27.2 27.2 7.9 NO 1.9 5.6 13.0 30 1015.1(-0.6/3h) 30 6/8 -- --
14:00 28.0 28.0 8.0 NO 3.7 5.6 7.4 28 1015.1(-0.9/3h) 30 4/8 -- --
13:00 27.2 27.2 8.3 NNO 3.7 5.6 9.3 30 1015.5(-0.7/3h) 30 4/8 -- --
12:00 26.8 26.8 6.2 ENE 5.6 7.4 13.0 27 1015.7(-0.5/3h) 30 3/8 0/6h
--
11:00 26.5 26.5 7.6 N 7.4 7.4 13.0 30 1016.1(0.1/3h) 30 2/8 -- --
10:00 25.2 25.2 9.9 NNE 5.6 5.6 9.3 38 1016.3(0.0/3h) 30 3/8 -- --
09:00 23.8 23.8 9.2 N 5.6 5.6 13.0 39 1016.4(0.1/3h) 30 3/8 -- --
08:00 22.4 22.4 7.6 E 1.9 3.7 5.6 39 1016.4(0.3/3h) 30 1/8 -- --
07:00 19.8 19.8 8.4 NE 1.9 3.7 5.6 48 1016.7(0.8/3h) 30 2/8 -- --
06:00 17.7 17.7 8.4 NNE 1.9 7.4 13.0 54 1016.7(0.8/3h) 30 1/8 0/12h
--
05:00 15.1 15.1 7.0 NE 3.7 3.7 11.1 58 1016.7(0.4/3h) 40 1/8 -- --
04:00 14.4 14.4 5.8 NE 1.9 7.4 13.0 56 1016.3(-0.1/3h) 40 0/8 -- --
03:00 14.8 14.8 6.5 ENE 5.6 5.6 13.0 57 1016.1(-0.5/3h) 40 0/8 -- --
02:00 14.8 14.8 7.3 NE 3.7 5.6 5.6 61 1016.3(-0.4/3h) 40 0/8 -- --
01:00 16.8 16.8 6.9 NE 3.7 3.7 7.4 52 1016.3(0.1/3h) 40 0/8 -- --
00:00 18.0 18.0 6.7 ENE 3.7 9.3 16.7 48 1016.4(0.8/3h) 40 0/8 0/6h
0/24h
--

1 Coordinated Universal Time. Actuellement il est 09:00 locale et 07:00 UTC.

2 Le vent souffle depuis la direction indiquée vers la direction oposée.

3 Les rafales max. sont disponible 40 min après l'heure du relevé.

4 Pour les stations d'altitude (plus de 600m) le géopotentiel du niveau le plus proche de la pression obligatoire est indiqué.

5 Les stations disposant d'un diffuseur peuvent indiquer "trace". Cela signifie que des précipitations ont touchés le sol mais que la quantité est inférieure à 0.1 mm.

Récapitulatif de la journée
Température [°C] Vent [km/h] Ensoleillement4 [h] Precipitations totale5 [mm] Pression [Hpa]
Min1 Max.2 Moy.3 Max. Min Max.
13.8 28.5 5.5 16.7 0 h 0 min 0 1014.3 1016.7

1 Température minimale relevée entre 18:00 UTC la veille et 18:00 UTC le jour donné.

2 Température maximale relevée entre 06:00 UTC le jour donné et 06:00 UTC le lendemain.

3 Vent moyen de la journée basé sur les relevés horaires.

4 Ensoleillement en heures relevé entre 06:00 UTC la veille et 06:00 UTC le jour donné.

5 Précipitations totales tombées entre 06:00 UTC la jour donné et 06:00 UTC le lendemain.

Graphiques horaires